Time;durP1;ratioP1;P1;durP2;ratioP2;P2;SDS_P1;SDS_P2;PMS_P1;PMS_P2;Temp;Humidity;BMP_temperature;BMP_pressure;BME280_temperature;BME280_humidity;BME280_pressure;Samples;Min_cycle;Max_cycle;Signal;HPM_P1;HPM_P2
2023/04/11 00:00:09;;;;;;;8.05;4.78;;;;;;;;;;6240990;28;20635;-78
2023/04/11 00:03:11;;;;;;;8.73;5.35;;;;;;;;;;6243839;28;20053;-77
2023/04/11 00:06:14;;;;;;;7.85;4.68;;;;;;;;;;6244587;28;20096;-77
2023/04/11 00:09:16;;;;;;;8.40;5.03;;;;;;;;;;6241491;28;20225;-77
2023/04/11 00:12:18;;;;;;;8.25;4.32;;;;;;;;;;6241866;28;20393;-77
2023/04/11 00:15:22;;;;;;;6.97;4.30;;;;;;;;;;6242259;28;20119;-77
2023/04/11 00:18:24;;;;;;;7.90;4.97;;;;;;;;;;6239514;28;20053;-77
2023/04/11 00:21:27;;;;;;;6.50;4.57;;;;;;;;;;6243450;28;20058;-77
2023/04/11 00:24:29;;;;;;;6.70;4.45;;;;;;;;;;6244001;28;20056;-76
2023/04/11 00:27:30;;;;;;;8.88;4.78;;;;;;;;;;6243013;28;20272;-77
2023/04/11 00:30:32;;;;;;;9.38;4.82;;;;;;;;;;6240561;28;20050;-77
2023/04/11 00:33:34;;;;;;;7.53;4.53;;;;;;;;;;6242330;28;20139;-77
2023/04/11 00:36:37;;;;;;;8.15;4.22;;;;;;;;;;6240973;28;20276;-77
2023/04/11 00:39:38;;;;;;;5.53;4.13;;;;;;;;;;6239955;28;20064;-77
2023/04/11 00:42:40;;;;;;;7.03;4.38;;;;;;;;;;6240784;28;20058;-77
2023/04/11 00:45:42;;;;;;;6.90;4.28;;;;;;;;;;6242834;28;20121;-77
2023/04/11 00:48:44;;;;;;;8.57;5.13;;;;;;;;;;6241027;28;20100;-77
2023/04/11 00:51:47;;;;;;;7.00;4.57;;;;;;;;;;6241280;28;20045;-77
2023/04/11 00:54:49;;;;;;;6.43;4.80;;;;;;;;;;6241775;28;20396;-77
2023/04/11 00:57:53;;;;;;;10.15;4.47;;;;;;;;;;6239068;28;20060;-77
2023/04/11 01:00:54;;;;;;;9.15;4.53;;;;;;;;;;6242928;28;20104;-77
2023/04/11 01:03:59;;;;;;;7.57;5.10;;;;;;;;;;6241588;28;20269;-77
2023/04/11 01:07:04;;;;;;;7.47;4.85;;;;;;;;;;6240726;28;20254;-77
2023/04/11 01:10:08;;;;;;;6.63;4.45;;;;;;;;;;6241298;28;20093;-77
2023/04/11 01:13:10;;;;;;;6.95;4.55;;;;;;;;;;6225451;28;20092;-78
2023/04/11 01:16:13;;;;;;;6.85;4.72;;;;;;;;;;6242499;28;20334;-77
2023/04/11 01:19:18;;;;;;;7.10;4.22;;;;;;;;;;6240157;28;20408;-77
2023/04/11 01:22:22;;;;;;;6.80;4.45;;;;;;;;;;6242136;28;20050;-77
2023/04/11 01:25:25;;;;;;;8.02;4.20;;;;;;;;;;6241825;28;20053;-76
2023/04/11 01:28:27;;;;;;;6.73;4.43;;;;;;;;;;6240964;28;20215;-77
2023/04/11 01:31:28;;;;;;;7.13;4.40;;;;;;;;;;6241243;28;20103;-76
2023/04/11 01:34:31;;;;;;;5.97;4.00;;;;;;;;;;6241623;28;20061;-77
2023/04/11 01:37:33;;;;;;;5.80;4.00;;;;;;;;;;6242647;28;20053;-77
2023/04/11 01:40:36;;;;;;;9.23;4.70;;;;;;;;;;6240969;28;20064;-77
2023/04/11 01:43:38;;;;;;;7.13;4.88;;;;;;;;;;6241705;28;20057;-76
2023/04/11 01:46:40;;;;;;;6.35;4.25;;;;;;;;;;6237826;28;20334;-77
2023/04/11 01:49:42;;;;;;;8.77;4.70;;;;;;;;;;6241068;28;20061;-77
2023/04/11 01:52:44;;;;;;;7.25;4.50;;;;;;;;;;6242138;28;20416;-77
2023/04/11 01:55:47;;;;;;;7.35;4.65;;;;;;;;;;6236399;28;20059;-77
2023/04/11 01:58:48;;;;;;;6.40;4.40;;;;;;;;;;6244878;28;20057;-77
2023/04/11 02:01:52;;;;;;;6.32;4.18;;;;;;;;;;6240963;28;20064;-76
2023/04/11 02:04:54;;;;;;;6.60;4.68;;;;;;;;;;6245676;28;20334;-76
2023/04/11 02:07:55;;;;;;;15.07;4.93;;;;;;;;;;6246612;28;20060;-77
2023/04/11 02:10:58;;;;;;;11.88;4.55;;;;;;;;;;6242732;28;20049;-77
2023/04/11 02:14:01;;;;;;;8.18;4.30;;;;;;;;;;6242854;28;20527;-77
2023/04/11 02:17:03;;;;;;;6.50;3.85;;;;;;;;;;6245673;28;20108;-77
2023/04/11 02:20:06;;;;;;;9.30;4.35;;;;;;;;;;6251898;28;20049;-77
2023/04/11 02:23:08;;;;;;;6.73;4.07;;;;;;;;;;6251047;28;20046;-77
2023/04/11 02:26:11;;;;;;;6.80;3.95;;;;;;;;;;6251104;28;20053;-77
2023/04/11 02:29:13;;;;;;;6.45;3.92;;;;;;;;;;6249877;28;20068;-76
2023/04/11 02:32:14;;;;;;;8.23;4.88;;;;;;;;;;6250182;28;20233;-77
2023/04/11 02:35:16;;;;;;;7.38;5.00;;;;;;;;;;6249665;28;20136;-77
2023/04/11 02:38:18;;;;;;;8.35;5.00;;;;;;;;;;6247143;28;20053;-77
2023/04/11 02:41:20;;;;;;;10.25;4.95;;;;;;;;;;6247843;28;20403;-77
2023/04/11 02:44:22;;;;;;;7.88;5.25;;;;;;;;;;6249245;28;20077;-77
2023/04/11 02:47:24;;;;;;;8.73;5.35;;;;;;;;;;6246795;28;20045;-77
2023/04/11 02:50:25;;;;;;;10.88;5.68;;;;;;;;;;6250830;28;20103;-77
2023/04/11 02:53:27;;;;;;;9.95;5.10;;;;;;;;;;6244871;28;20175;-77
2023/04/11 02:56:30;;;;;;;9.20;5.68;;;;;;;;;;6243877;28;20057;-77
2023/04/11 02:59:32;;;;;;;8.45;6.00;;;;;;;;;;6243279;28;20325;-77
2023/04/11 03:02:34;;;;;;;9.43;6.22;;;;;;;;;;6242430;28;20113;-77
2023/04/11 03:05:35;;;;;;;9.13;5.72;;;;;;;;;;6242076;28;20060;-77
2023/04/11 03:08:38;;;;;;;9.18;6.07;;;;;;;;;;6244154;28;20053;-77
2023/04/11 03:11:40;;;;;;;14.23;7.32;;;;;;;;;;6243570;28;20057;-77
2023/04/11 03:14:42;;;;;;;12.35;8.18;;;;;;;;;;6244374;28;20088;-77
2023/04/11 03:17:44;;;;;;;10.93;7.13;;;;;;;;;;6243321;28;20044;-77
2023/04/11 03:20:46;;;;;;;14.20;7.38;;;;;;;;;;6243382;28;20050;-77
2023/04/11 03:23:48;;;;;;;12.68;8.55;;;;;;;;;;6241538;28;20041;-77
2023/04/11 03:26:51;;;;;;;11.82;8.05;;;;;;;;;;6243097;28;20053;-76
2023/04/11 03:29:52;;;;;;;13.30;8.25;;;;;;;;;;6240869;28;20077;-77
2023/04/11 03:32:54;;;;;;;10.73;8.23;;;;;;;;;;6243604;28;20050;-76
2023/04/11 03:35:56;;;;;;;19.33;7.85;;;;;;;;;;6237778;28;20104;-76
2023/04/11 03:38:57;;;;;;;12.05;8.10;;;;;;;;;;6240421;28;20318;-77
2023/04/11 03:42:01;;;;;;;12.75;8.57;;;;;;;;;;6241711;28;20334;-77
2023/04/11 03:45:03;;;;;;;13.95;9.68;;;;;;;;;;6243519;28;20053;-77
2023/04/11 03:48:05;;;;;;;18.02;8.95;;;;;;;;;;6241897;28;20084;-77
2023/04/11 03:51:07;;;;;;;16.48;8.15;;;;;;;;;;6242576;28;20345;-77
2023/04/11 03:54:09;;;;;;;13.80;8.50;;;;;;;;;;6242133;28;20436;-77
2023/04/11 03:57:12;;;;;;;13.93;8.10;;;;;;;;;;6242008;28;20061;-77
2023/04/11 04:00:14;;;;;;;12.18;8.13;;;;;;;;;;6240328;28;20329;-77
2023/04/11 04:03:16;;;;;;;13.13;8.90;;;;;;;;;;6241871;28;20057;-77
2023/04/11 04:06:17;;;;;;;16.35;9.30;;;;;;;;;;6240986;28;20392;-77
2023/04/11 04:09:19;;;;;;;20.98;8.88;;;;;;;;;;6242813;28;20069;-77
2023/04/11 04:12:22;;;;;;;13.90;8.82;;;;;;;;;;6243225;28;20049;-77
2023/04/11 04:15:24;;;;;;;14.30;8.85;;;;;;;;;;6242549;28;20053;-77
2023/04/11 04:18:25;;;;;;;17.80;8.55;;;;;;;;;;6242718;28;20068;-76
2023/04/11 04:21:31;;;;;;;15.75;9.45;;;;;;;;;;6243730;28;20052;-77
2023/04/11 04:24:36;;;;;;;16.98;8.95;;;;;;;;;;6239879;28;20049;-77
2023/04/11 04:27:43;;;;;;;17.92;9.02;;;;;;;;;;6241058;28;20245;-77
2023/04/11 04:30:48;;;;;;;13.90;8.18;;;;;;;;;;6242649;28;20044;-77
2023/04/11 04:33:50;;;;;;;16.58;9.30;;;;;;;;;;6240254;28;20053;-77
2023/04/11 04:36:55;;;;;;;23.08;9.02;;;;;;;;;;6241683;28;20065;-77
2023/04/11 04:40:01;;;;;;;11.38;8.13;;;;;;;;;;6240721;28;20121;-76
2023/04/11 04:43:03;;;;;;;12.85;8.18;;;;;;;;;;6244362;28;20626;-76
2023/04/11 04:46:06;;;;;;;12.23;8.35;;;;;;;;;;6240929;28;20100;-76
2023/04/11 04:49:08;;;;;;;12.80;7.85;;;;;;;;;;6241481;28;20073;-76
2023/04/11 04:52:10;;;;;;;12.60;8.40;;;;;;;;;;6243687;28;20053;-76
2023/04/11 04:55:11;;;;;;;13.43;8.80;;;;;;;;;;6241815;28;20049;-78
2023/04/11 04:58:14;;;;;;;15.02;8.80;;;;;;;;;;6242212;28;20053;-77
2023/04/11 05:01:16;;;;;;;16.00;8.52;;;;;;;;;;6240095;28;21149;-78
2023/04/11 05:04:18;;;;;;;17.50;9.05;;;;;;;;;;6242530;28;20100;-77
2023/04/11 05:07:19;;;;;;;19.30;8.95;;;;;;;;;;6238801;28;20096;-77
2023/04/11 05:10:21;;;;;;;16.63;8.65;;;;;;;;;;6240881;28;20361;-77
2023/04/11 05:13:24;;;;;;;14.63;8.82;;;;;;;;;;6241038;28;20058;-77
2023/04/11 05:16:26;;;;;;;15.82;9.23;;;;;;;;;;6239148;28;20357;-76
2023/04/11 05:19:27;;;;;;;15.52;9.85;;;;;;;;;;6242103;28;20057;-77
2023/04/11 05:22:29;;;;;;;15.88;8.93;;;;;;;;;;6242216;28;20049;-77
2023/04/11 05:25:31;;;;;;;12.38;8.20;;;;;;;;;;6241964;28;20391;-76
2023/04/11 05:28:34;;;;;;;13.50;8.90;;;;;;;;;;6243792;28;20061;-77
2023/04/11 05:31:36;;;;;;;15.00;9.63;;;;;;;;;;6240040;28;20045;-77
2023/04/11 05:34:50;;;;;;;19.55;9.30;;;;;;;;;;6245238;28;20053;-76
2023/04/11 05:37:52;;;;;;;16.85;9.35;;;;;;;;;;6245885;28;20113;-77
2023/04/11 05:40:53;;;;;;;14.35;9.57;;;;;;;;;;6245957;28;20520;-76
2023/04/11 05:43:56;;;;;;;14.75;8.70;;;;;;;;;;6246477;28;20045;-76
2023/04/11 05:46:58;;;;;;;14.25;9.02;;;;;;;;;;6244800;28;20136;-77
2023/04/11 05:50:00;;;;;;;15.35;8.90;;;;;;;;;;6243088;28;20264;-77
2023/04/11 05:53:02;;;;;;;14.15;9.57;;;;;;;;;;6247472;28;20297;-77
2023/04/11 05:56:04;;;;;;;20.40;9.85;;;;;;;;;;6245370;28;20053;-76
2023/04/11 05:59:06;;;;;;;17.40;9.20;;;;;;;;;;6245900;28;20099;-78
2023/04/11 06:02:08;;;;;;;14.43;9.60;;;;;;;;;;6244733;28;20284;-78
2023/04/11 06:05:10;;;;;;;17.95;9.95;;;;;;;;;;6244398;28;20076;-80
2023/04/11 06:08:12;;;;;;;16.50;9.38;;;;;;;;;;6244721;28;20057;-78
2023/04/11 06:11:13;;;;;;;16.85;9.07;;;;;;;;;;6244775;28;20072;-77
2023/04/11 06:14:16;;;;;;;14.73;9.20;;;;;;;;;;6249378;28;20072;-77
2023/04/11 06:17:18;;;;;;;15.60;10.35;;;;;;;;;;6244301;28;20060;-76
2023/04/11 06:20:20;;;;;;;19.85;10.32;;;;;;;;;;6244973;28;20273;-77
2023/04/11 06:23:22;;;;;;;19.15;10.15;;;;;;;;;;6245068;28;20065;-75
2023/04/11 06:26:23;;;;;;;16.50;9.73;;;;;;;;;;6243861;28;20375;-75
2023/04/11 06:29:26;;;;;;;15.23;9.63;;;;;;;;;;6245700;28;20266;-75
2023/04/11 06:32:29;;;;;;;15.88;10.05;;;;;;;;;;6247523;28;20300;-76
2023/04/11 06:35:30;;;;;;;18.15;10.32;;;;;;;;;;6244760;28;20080;-76
2023/04/11 06:38:33;;;;;;;16.92;9.80;;;;;;;;;;6245604;28;20053;-76
2023/04/11 06:41:35;;;;;;;20.42;9.38;;;;;;;;;;6244040;28;20596;-75
2023/04/11 06:44:38;;;;;;;22.58;10.20;;;;;;;;;;6242895;28;21141;-75
2023/04/11 06:47:39;;;;;;;17.42;9.57;;;;;;;;;;6244763;28;20061;-76
2023/04/11 06:50:41;;;;;;;17.05;9.35;;;;;;;;;;6243349;28;20057;-76
2023/04/11 06:53:43;;;;;;;27.65;9.52;;;;;;;;;;6241987;28;20056;-77
2023/04/11 06:56:44;;;;;;;17.27;10.10;;;;;;;;;;6243792;28;20356;-77
2023/04/11 06:59:47;;;;;;;20.88;10.10;;;;;;;;;;6242869;28;20057;-76
2023/04/11 07:02:49;;;;;;;22.15;10.02;;;;;;;;;;6244951;28;20277;-76
2023/04/11 07:05:51;;;;;;;20.38;10.20;;;;;;;;;;6244521;28;20640;-75
2023/04/11 07:08:53;;;;;;;19.63;10.15;;;;;;;;;;6242947;28;20289;-77
2023/04/11 07:11:55;;;;;;;22.83;10.27;;;;;;;;;;6242437;28;20054;-77
2023/04/11 07:14:58;;;;;;;20.25;10.38;;;;;;;;;;6245872;28;20053;-77
2023/04/11 07:17:59;;;;;;;22.73;10.55;;;;;;;;;;6247135;28;20116;-76
2023/04/11 07:21:01;;;;;;;17.52;10.80;;;;;;;;;;6244409;28;20249;-77
2023/04/11 07:24:04;;;;;;;15.75;9.68;;;;;;;;;;6242817;28;20053;-77
2023/04/11 07:27:05;;;;;;;15.90;10.57;;;;;;;;;;6242324;28;20041;-78
2023/04/11 07:30:10;;;;;;;16.98;9.90;;;;;;;;;;6244043;28;20041;-77
2023/04/11 07:33:11;;;;;;;19.30;9.52;;;;;;;;;;6242852;28;20062;-77
2023/04/11 07:36:13;;;;;;;16.30;10.30;;;;;;;;;;6241549;28;20061;-78
2023/04/11 07:39:14;;;;;;;17.73;9.80;;;;;;;;;;6246920;28;20053;-79
2023/04/11 07:42:16;;;;;;;19.95;10.18;;;;;;;;;;6243838;28;20053;-78
2023/04/11 07:45:19;;;;;;;16.48;11.07;;;;;;;;;;6242985;28;20041;-78
2023/04/11 07:48:21;;;;;;;28.97;10.57;;;;;;;;;;6243734;28;20058;-77
2023/04/11 07:51:22;;;;;;;15.13;10.13;;;;;;;;;;6242465;28;20057;-78
2023/04/11 07:54:27;;;;;;;14.85;10.38;;;;;;;;;;6242331;28;20104;-79
2023/04/11 07:57:29;;;;;;;15.23;10.13;;;;;;;;;;6240003;28;20052;-77
2023/04/11 08:00:32;;;;;;;13.63;9.63;;;;;;;;;;6242395;28;20245;-77
2023/04/11 08:03:34;;;;;;;15.10;10.00;;;;;;;;;;6240671;28;20075;-78
2023/04/11 08:06:36;;;;;;;15.85;10.43;;;;;;;;;;6245621;28;20229;-78
2023/04/11 08:09:37;;;;;;;18.20;10.75;;;;;;;;;;6246944;28;20381;-77
2023/04/11 08:12:39;;;;;;;15.52;10.50;;;;;;;;;;6244749;28;20049;-79
2023/04/11 08:15:42;;;;;;;14.48;10.48;;;;;;;;;;6242064;28;20045;-77
2023/04/11 08:18:44;;;;;;;16.73;9.35;;;;;;;;;;6243930;28;20057;-77
2023/04/11 08:21:46;;;;;;;17.70;10.60;;;;;;;;;;6241451;28;20343;-76
2023/04/11 08:24:47;;;;;;;17.58;9.85;;;;;;;;;;6241450;28;20218;-76
2023/04/11 08:27:49;;;;;;;17.13;9.40;;;;;;;;;;6239349;28;20258;-77
2023/04/11 08:30:54;;;;;;;14.68;9.50;;;;;;;;;;6242042;28;20346;-77
2023/04/11 08:33:55;;;;;;;12.95;9.07;;;;;;;;;;6244115;28;20049;-77
2023/04/11 08:36:57;;;;;;;13.68;8.82;;;;;;;;;;6241310;28;20064;-77
2023/04/11 08:39:59;;;;;;;12.88;8.80;;;;;;;;;;6240643;28;20143;-76
2023/04/11 08:43:01;;;;;;;12.18;8.82;;;;;;;;;;6243633;28;20258;-76
2023/04/11 08:46:06;;;;;;;16.15;9.25;;;;;;;;;;6245458;28;20112;-77
2023/04/11 08:49:08;;;;;;;21.42;9.70;;;;;;;;;;6240179;28;20065;-77
2023/04/11 08:52:09;;;;;;;13.50;8.88;;;;;;;;;;6240508;28;20053;-78
2023/04/11 08:55:12;;;;;;;12.50;8.93;;;;;;;;;;6241691;28;20084;-78
2023/04/11 08:58:14;;;;;;;12.47;9.37;;;;;;;;;;6244573;28;20359;-77
2023/04/11 09:01:31;;;;;;;13.57;8.65;;;;;;;;;;6242973;28;20480;-79
2023/04/11 09:04:40;;;;;;;13.52;8.60;;;;;;;;;;6243128;28;20078;-78
2023/04/11 09:07:49;;;;;;;13.02;8.05;;;;;;;;;;6239839;28;20280;-77
2023/04/11 09:10:50;;;;;;;12.40;7.82;;;;;;;;;;6241399;28;20046;-77
2023/04/11 09:14:06;;;;;;;10.63;8.00;;;;;;;;;;6242550;28;20058;-78
2023/04/11 09:17:13;;;;;;;11.27;7.78;;;;;;;;;;6239648;28;20061;-77
2023/04/11 09:20:19;;;;;;;12.65;8.15;;;;;;;;;;6240114;28;20061;-75
2023/04/11 09:23:22;;;;;;;11.52;8.77;;;;;;;;;;6238146;28;20100;-77
2023/04/11 09:26:28;;;;;;;10.10;7.32;;;;;;;;;;6242123;28;20049;-76
2023/04/11 09:29:37;;;;;;;9.25;7.25;;;;;;;;;;6240290;28;20053;-75
2023/04/11 09:32:40;;;;;;;9.60;7.38;;;;;;;;;;6242638;28;20112;-76
2023/04/11 09:35:41;;;;;;;8.65;7.07;;;;;;;;;;6240889;28;20049;-75
2023/04/11 09:38:43;;;;;;;12.70;7.03;;;;;;;;;;6241735;28;20401;-75
2023/04/11 09:41:45;;;;;;;8.95;6.97;;;;;;;;;;6241741;28;20338;-76
2023/04/11 09:44:46;;;;;;;10.38;7.18;;;;;;;;;;6238721;28;20053;-74
2023/04/11 09:47:51;;;;;;;11.68;8.30;;;;;;;;;;6239785;28;20109;-74
2023/04/11 09:50:53;;;;;;;11.45;8.02;;;;;;;;;;6240808;28;20049;-75
2023/04/11 09:53:55;;;;;;;9.98;7.82;;;;;;;;;;6241143;28;20092;-74
2023/04/11 09:56:57;;;;;;;10.88;7.60;;;;;;;;;;6243974;28;20061;-74
2023/04/11 09:59:58;;;;;;;9.15;7.65;;;;;;;;;;6240349;28;20096;-74
2023/04/11 10:03:01;;;;;;;11.57;7.78;;;;;;;;;;6239285;28;20088;-75
2023/04/11 10:06:06;;;;;;;8.13;6.40;;;;;;;;;;6240606;28;20234;-75
2023/04/11 10:09:10;;;;;;;10.52;6.47;;;;;;;;;;6241111;28;20341;-75
2023/04/11 10:12:11;;;;;;;40.15;27.92;;;;;;;;;;6240282;28;20053;-75
2023/04/11 10:15:14;;;;;;;19.55;12.32;;;;;;;;;;6241760;28;20103;-76
2023/04/11 10:18:17;;;;;;;13.90;10.13;;;;;;;;;;6239663;28;20045;-76
2023/04/11 10:21:39;;;;;;;7.13;6.10;;;;;;;;;;6242413;28;20111;-75
2023/04/11 10:25:16;;;;;;;7.63;6.32;;;;;;;;;;6246458;28;20045;-75
2023/04/11 10:28:38;;;;;;;6.15;5.53;;;;;;;;;;6245134;28;20044;-75
2023/04/11 10:32:09;;;;;;;7.85;5.70;;;;;;;;;;6244866;28;20330;-75
2023/04/11 10:35:22;;;;;;;9.85;6.03;;;;;;;;;;6243918;28;20057;-75
2023/04/11 10:38:47;;;;;;;8.85;6.20;;;;;;;;;;6244657;28;20057;-75
2023/04/11 10:41:48;;;;;;;6.97;5.90;;;;;;;;;;6245045;28;20057;-75
2023/04/11 10:45:13;;;;;;;7.55;6.75;;;;;;;;;;6246648;28;20046;-75
2023/04/11 10:48:15;;;;;;;9.90;7.45;;;;;;;;;;6243700;28;20054;-75
2023/04/11 10:51:24;;;;;;;9.35;6.40;;;;;;;;;;6241603;28;20084;-75
2023/04/11 10:54:26;;;;;;;10.27;7.10;;;;;;;;;;6243045;28;20053;-75
2023/04/11 10:58:04;;;;;;;7.00;6.30;;;;;;;;;;6242481;28;20054;-75
2023/04/11 11:01:16;;;;;;;11.52;6.78;;;;;;;;;;6242812;28;20038;-75
2023/04/11 11:04:18;;;;;;;6.38;5.53;;;;;;;;;;6245051;28;20052;-75
2023/04/11 11:07:21;;;;;;;6.00;5.40;;;;;;;;;;6243377;28;20057;-76
2023/04/11 11:10:36;;;;;;;9.32;5.95;;;;;;;;;;6248671;28;20061;-77
2023/04/11 11:13:38;;;;;;;6.70;5.07;;;;;;;;;;6242730;28;20080;-79
2023/04/11 11:16:40;;;;;;;7.63;5.07;;;;;;;;;;6244734;28;21116;-77
2023/04/11 11:19:43;;;;;;;6.22;4.55;;;;;;;;;;6244447;28;20045;-76
2023/04/11 11:22:59;;;;;;;6.97;4.47;;;;;;;;;;6243597;28;20109;-81
2023/04/11 11:26:01;;;;;;;4.60;4.07;;;;;;;;;;6241666;28;20333;-78
2023/04/11 11:29:04;;;;;;;6.60;5.00;;;;;;;;;;6243646;28;20061;-76
2023/04/11 11:32:06;;;;;;;8.07;4.70;;;;;;;;;;6242447;28;20042;-75
2023/04/11 11:35:12;;;;;;;7.35;4.20;;;;;;;;;;6246390;28;20736;-76
2023/04/11 11:38:15;;;;;;;4.28;3.80;;;;;;;;;;6247952;28;20085;-77
2023/04/11 11:41:17;;;;;;;5.32;4.30;;;;;;;;;;6247306;28;20054;-78
2023/04/11 11:44:22;;;;;;;6.63;4.70;;;;;;;;;;6249062;28;20305;-80
2023/04/11 11:47:26;;;;;;;6.47;4.53;;;;;;;;;;6248042;28;20056;-79
2023/04/11 11:50:29;;;;;;;5.80;4.82;;;;;;;;;;6247797;28;20066;-80
2023/04/11 11:53:32;;;;;;;;;;;;;;;;;;6245422;28;20103;-78
2023/04/11 11:56:33;;;;;;;5.68;4.93;;;;;;;;;;6254498;28;20259;-74
2023/04/11 11:59:35;;;;;;;9.80;4.15;;;;;;;;;;6247598;28;20333;-74
2023/04/11 12:02:38;;;;;;;6.57;4.45;;;;;;;;;;6248409;28;20105;-78
2023/04/11 12:05:43;;;;;;;8.57;4.43;;;;;;;;;;6247368;28;20049;-77
2023/04/11 12:08:50;;;;;;;6.47;5.53;;;;;;;;;;6244160;28;20064;-75
2023/04/11 12:11:55;;;;;;;7.07;5.20;;;;;;;;;;6245807;28;20057;-76
2023/04/11 12:14:56;;;;;;;7.88;5.20;;;;;;;;;;6243358;28;20103;-76
2023/04/11 12:17:58;;;;;;;7.05;4.68;;;;;;;;;;6245193;28;20060;-77
2023/04/11 12:21:00;;;;;;;7.60;4.65;;;;;;;;;;6245295;28;20057;-77
2023/04/11 12:24:03;;;;;;;5.30;3.90;;;;;;;;;;6245768;28;20720;-76
2023/04/11 12:27:04;;;;;;;7.03;4.63;;;;;;;;;;6245541;28;20050;-76
2023/04/11 12:30:07;;;;;;;7.70;4.57;;;;;;;;;;6245829;28;20049;-77
2023/04/11 12:33:09;;;;;;;5.05;3.70;;;;;;;;;;6249517;28;20249;-76
2023/04/11 12:36:12;;;;;;;7.30;4.22;;;;;;;;;;6243807;28;20310;-77
2023/04/11 12:39:15;;;;;;;6.25;4.57;;;;;;;;;;6241887;28;20050;-77
2023/04/11 12:42:17;;;;;;;5.53;3.90;;;;;;;;;;6240184;28;20042;-77
2023/04/11 12:45:18;;;;;;;6.78;4.47;;;;;;;;;;6237683;28;20066;-76
2023/04/11 12:48:20;;;;;;;6.10;4.30;;;;;;;;;;6237889;28;20046;-77
2023/04/11 12:51:22;;;;;;;8.07;4.30;;;;;;;;;;6242719;28;20288;-78
2023/04/11 12:54:25;;;;;;;7.70;4.30;;;;;;;;;;6239638;28;20391;-76
2023/04/11 12:57:26;;;;;;;5.18;3.92;;;;;;;;;;6239097;28;20062;-76
2023/04/11 13:00:28;;;;;;;5.72;4.43;;;;;;;;;;6242733;28;20120;-77
2023/04/11 13:03:30;;;;;;;7.47;5.05;;;;;;;;;;6236412;28;20136;-77
2023/04/11 13:06:32;;;;;;;8.68;4.22;;;;;;;;;;6239441;28;20337;-77
2023/04/11 13:09:35;;;;;;;10.82;3.75;;;;;;;;;;6239407;28;20103;-79
2023/04/11 13:12:40;;;;;;;5.32;3.63;;;;;;;;;;6242375;28;20065;-76
2023/04/11 13:15:41;;;;;;;5.70;3.65;;;;;;;;;;6244213;28;20041;-76
2023/04/11 13:18:43;;;;;;;6.22;4.40;;;;;;;;;;6240307;28;20050;-76
2023/04/11 13:21:45;;;;;;;5.38;3.78;;;;;;;;;;6239156;28;20053;-76
2023/04/11 13:24:48;;;;;;;5.20;3.67;;;;;;;;;;6239304;28;20083;-77
2023/04/11 13:27:49;;;;;;;5.00;3.45;;;;;;;;;;6239308;28;20080;-78
2023/04/11 13:30:51;;;;;;;5.60;3.60;;;;;;;;;;6239701;28;20061;-77
2023/04/11 13:33:52;;;;;;;6.60;3.90;;;;;;;;;;6242209;28;20447;-79
2023/04/11 13:36:54;;;;;;;5.85;3.80;;;;;;;;;;6243492;28;20054;-77
2023/04/11 13:39:57;;;;;;;5.97;4.03;;;;;;;;;;6239010;28;20049;-77
2023/04/11 13:42:59;;;;;;;5.82;3.00;;;;;;;;;;6240613;28;20058;-77
2023/04/11 13:46:00;;;;;;;4.20;3.80;;;;;;;;;;6239812;28;20123;-79
2023/04/11 13:49:04;;;;;;;5.88;3.17;;;;;;;;;;6241888;28;20121;-78
2023/04/11 13:52:05;;;;;;;7.50;3.45;;;;;;;;;;6241928;28;20059;-77
2023/04/11 13:55:09;;;;;;;7.30;3.65;;;;;;;;;;6239840;28;20126;-78
2023/04/11 13:58:11;;;;;;;5.13;3.90;;;;;;;;;;6244337;28;20060;-78
2023/04/11 14:01:12;;;;;;;5.25;3.70;;;;;;;;;;6245020;28;20041;-78
2023/04/11 14:04:14;;;;;;;5.50;3.30;;;;;;;;;;6246483;28;20101;-79
2023/04/11 14:07:16;;;;;;;10.07;4.13;;;;;;;;;;6241780;28;20057;-79
2023/04/11 14:10:19;;;;;;;4.03;3.45;;;;;;;;;;6243262;28;20064;-79
2023/04/11 14:13:20;;;;;;;;;;;;;;;;;;6244534;28;20121;-79
2023/04/11 14:16:22;;;;;;;5.20;3.35;;;;;;;;;;6245475;28;20211;-79
2023/04/11 14:19:25;;;;;;;5.53;3.08;;;;;;;;;;6243479;28;20093;-80
2023/04/11 14:22:26;;;;;;;;;;;;;;;;;;6244081;28;20514;-80
2023/04/11 14:25:29;;;;;;;7.88;3.40;;;;;;;;;;6241334;28;19936;-79
2023/04/11 14:28:31;;;;;;;;;;;;;;;;;;6242271;28;20395;-79
2023/04/11 14:31:32;;;;;;;4.93;2.78;;;;;;;;;;6244904;28;19924;-79
2023/04/11 14:34:34;;;;;;;10.02;3.42;;;;;;;;;;6245157;28;20061;-79
2023/04/11 14:37:36;;;;;;;5.32;3.50;;;;;;;;;;6234369;28;20198;-80
2023/04/11 14:40:39;;;;;;;8.07;3.33;;;;;;;;;;6241623;28;20065;-79
2023/04/11 14:43:41;;;;;;;6.80;3.40;;;;;;;;;;6243910;28;20045;-79
2023/04/11 14:46:42;;;;;;;4.72;3.25;;;;;;;;;;6245998;28;20104;-78
2023/04/11 14:49:44;;;;;;;5.70;3.03;;;;;;;;;;6244493;28;20095;-80
2023/04/11 14:52:47;;;;;;;3.95;3.08;;;;;;;;;;6244559;28;20061;-79
2023/04/11 14:55:50;;;;;;;9.68;3.03;;;;;;;;;;6241304;28;20104;-79
2023/04/11 14:58:52;;;;;;;5.78;2.90;;;;;;;;;;6244167;28;20294;-79
2023/04/11 15:01:53;;;;;;;20.67;4.17;;;;;;;;;;6240599;28;20065;-79
2023/04/11 15:04:55;;;;;;;10.05;3.20;;;;;;;;;;6245091;28;20049;-79
2023/04/11 15:07:57;;;;;;;5.53;3.38;;;;;;;;;;6239244;28;20076;-80
2023/04/11 15:11:00;;;;;;;5.05;3.30;;;;;;;;;;6231511;28;20155;-79
2023/04/11 15:14:01;;;;;;;;;;;;;;;;;;6244758;28;20053;-78
2023/04/11 15:17:03;;;;;;;5.70;2.90;;;;;;;;;;6242192;28;19932;-78
2023/04/11 15:20:07;;;;;;;6.13;2.78;;;;;;;;;;6240408;28;20053;-78
2023/04/11 15:23:08;;;;;;;5.32;2.60;;;;;;;;;;6241600;28;20379;-78
2023/04/11 15:26:11;;;;;;;6.68;2.40;;;;;;;;;;6240288;28;20313;-78
2023/04/11 15:29:14;;;;;;;;;;;;;;;;;;6245100;28;20064;-78
2023/04/11 15:32:16;;;;;;;4.00;2.50;;;;;;;;;;6242932;28;20201;-76
2023/04/11 15:35:17;;;;;;;16.33;3.25;;;;;;;;;;6239954;28;20061;-77
2023/04/11 15:38:19;;;;;;;4.00;2.05;;;;;;;;;;6238435;28;20057;-77
2023/04/11 15:41:22;;;;;;;5.50;2.28;;;;;;;;;;6239732;28;20111;-76
2023/04/11 15:44:24;;;;;;;;;;;;;;;;;;6241005;28;20075;-78
2023/04/11 15:47:25;;;;;;;5.38;2.28;;;;;;;;;;6239848;28;19925;-77
2023/04/11 15:50:27;;;;;;;3.00;2.50;;;;;;;;;;6242742;28;20057;-78
2023/04/11 15:53:29;;;;;;;7.07;2.58;;;;;;;;;;6240211;28;20053;-77
2023/04/11 15:56:33;;;;;;;6.10;2.17;;;;;;;;;;6241730;28;20057;-80
2023/04/11 15:59:36;;;;;;;361.45;240.35;;;;;;;;;;6242275;28;20037;-78
2023/04/11 16:02:38;;;;;;;17.42;12.15;;;;;;;;;;6241933;28;20100;-78
2023/04/11 16:05:41;;;;;;;43.08;20.15;;;;;;;;;;6237726;28;20045;-79
2023/04/11 16:08:44;;;;;;;62.67;39.40;;;;;;;;;;6242280;28;20394;-79
2023/04/11 16:11:47;;;;;;;8.43;5.70;;;;;;;;;;6240907;28;20121;-77
2023/04/11 16:14:49;;;;;;;7.03;2.30;;;;;;;;;;6241499;28;20096;-77
2023/04/11 16:17:51;;;;;;;3.83;2.10;;;;;;;;;;6237268;28;20052;-77
2023/04/11 16:20:53;;;;;;;5.07;2.20;;;;;;;;;;6240778;28;20049;-77
2023/04/11 16:23:55;;;;;;;5.10;2.30;;;;;;;;;;6237712;28;20326;-77
2023/04/11 16:26:59;;;;;;;2.87;2.30;;;;;;;;;;6240873;28;20053;-77
2023/04/11 16:30:04;;;;;;;5.85;2.65;;;;;;;;;;6230804;28;20057;-77
2023/04/11 16:33:06;;;;;;;7.97;2.70;;;;;;;;;;6238014;28;20125;-78
2023/04/11 16:36:09;;;;;;;9.68;2.50;;;;;;;;;;6238676;28;20073;-78
2023/04/11 16:39:11;;;;;;;5.40;2.83;;;;;;;;;;6239632;28;20127;-79
2023/04/11 16:42:15;;;;;;;5.30;2.45;;;;;;;;;;6235990;28;20055;-78
2023/04/11 16:45:16;;;;;;;;;;;;;;;;;;6240385;28;20282;-77
2023/04/11 16:48:18;;;;;;;9.90;2.53;;;;;;;;;;6239142;28;19928;-78
2023/04/11 16:51:20;;;;;;;3.95;2.40;;;;;;;;;;6237557;28;20092;-77
2023/04/11 16:54:21;;;;;;;6.30;2.50;;;;;;;;;;6238759;28;20053;-77
2023/04/11 16:57:26;;;;;;;5.32;2.40;;;;;;;;;;6241566;28;20069;-77
2023/04/11 17:00:28;;;;;;;3.60;2.53;;;;;;;;;;6240143;28;20067;-78
2023/04/11 17:03:29;;;;;;;5.88;2.80;;;;;;;;;;6238225;28;20053;-79
2023/04/11 17:06:31;;;;;;;4.25;2.15;;;;;;;;;;6240942;28;20041;-77
2023/04/11 17:09:33;;;;;;;4.53;2.35;;;;;;;;;;6239664;28;20061;-78
2023/04/11 17:12:36;;;;;;;3.10;2.40;;;;;;;;;;6240143;28;20045;-78
2023/04/11 17:15:37;;;;;;;4.90;2.53;;;;;;;;;;6237081;28;20061;-77
2023/04/11 17:18:40;;;;;;;5.07;2.75;;;;;;;;;;6238591;28;20297;-78
2023/04/11 17:21:41;;;;;;;3.47;1.92;;;;;;;;;;6238707;28;20049;-79
2023/04/11 17:24:43;;;;;;;4.88;2.50;;;;;;;;;;6239009;28;20053;-81
2023/04/11 17:27:46;;;;;;;5.43;2.20;;;;;;;;;;6238028;28;20061;-81
2023/04/11 17:30:48;;;;;;;5.38;2.13;;;;;;;;;;6241318;28;20305;-77
2023/04/11 17:33:49;;;;;;;3.80;2.22;;;;;;;;;;6242847;28;20132;-78
2023/04/11 17:36:51;;;;;;;4.80;2.35;;;;;;;;;;6243511;28;20057;-78
2023/04/11 17:39:53;;;;;;;5.78;2.08;;;;;;;;;;6243135;28;20527;-75
2023/04/11 17:42:56;;;;;;;4.32;1.95;;;;;;;;;;6246069;28;20053;-76
2023/04/11 17:46:03;;;;;;;5.97;2.35;;;;;;;;;;6242094;28;20060;-75
2023/04/11 17:49:04;;;;;;;5.47;2.13;;;;;;;;;;6246556;28;20057;-78
2023/04/11 17:52:06;;;;;;;5.97;2.17;;;;;;;;;;6245548;28;20096;-77
2023/04/11 17:55:09;;;;;;;3.42;2.10;;;;;;;;;;6249268;28;20333;-77
2023/04/11 17:58:13;;;;;;;6.07;2.30;;;;;;;;;;6249844;28;20060;-75
2023/04/11 18:01:15;;;;;;;4.35;2.33;;;;;;;;;;6244566;28;20115;-76
2023/04/11 18:04:17;;;;;;;4.50;2.17;;;;;;;;;;6244111;28;20053;-75
2023/04/11 18:07:23;;;;;;;4.97;1.90;;;;;;;;;;6243581;28;20360;-75
2023/04/11 18:10:25;;;;;;;4.50;1.92;;;;;;;;;;6246112;28;20053;-75